sensor_id;sensor_type;location;lat;lon;timestamp;pressure;altitude;pressure_sealevel;temperature;humidity
36664;BME280;53333;51.976;20.144;2023-05-09T00:01:52;101478.63;;;7.56;57.76
36664;BME280;53333;51.976;20.144;2023-05-09T00:04:25;101479.56;;;7.55;57.53
36664;BME280;53333;51.976;20.144;2023-05-09T00:06:58;101481.31;;;7.54;57.50
36664;BME280;53333;51.976;20.144;2023-05-09T00:09:31;101485.81;;;7.51;57.52
36664;BME280;53333;51.976;20.144;2023-05-09T00:12:04;101478.75;;;7.48;57.49
36664;BME280;53333;51.976;20.144;2023-05-09T00:14:38;101480.56;;;7.46;57.71
36664;BME280;53333;51.976;20.144;2023-05-09T00:17:13;101468.25;;;7.40;57.58
36664;BME280;53333;51.976;20.144;2023-05-09T00:19:46;101481.56;;;7.39;57.68
36664;BME280;53333;51.976;20.144;2023-05-09T00:22:19;101473.63;;;7.36;57.85
36664;BME280;53333;51.976;20.144;2023-05-09T00:24:52;101471.91;;;7.32;57.95
36664;BME280;53333;51.976;20.144;2023-05-09T00:27:26;101476.41;;;7.26;57.90
36664;BME280;53333;51.976;20.144;2023-05-09T00:30:02;101469.38;;;7.22;58.04
36664;BME280;53333;51.976;20.144;2023-05-09T00:32:36;101471.19;;;7.19;58.08
36664;BME280;53333;51.976;20.144;2023-05-09T00:35:10;101471.25;;;7.16;58.03
36664;BME280;53333;51.976;20.144;2023-05-09T00:37:44;101474.78;;;7.15;58.04
36664;BME280;53333;51.976;20.144;2023-05-09T00:40:17;101473.97;;;7.11;57.76
36664;BME280;53333;51.976;20.144;2023-05-09T00:42:51;101470.44;;;7.11;57.44
36664;BME280;53333;51.976;20.144;2023-05-09T00:45:24;101473.97;;;7.09;57.34
36664;BME280;53333;51.976;20.144;2023-05-09T00:47:58;101469.59;;;7.08;57.20
36664;BME280;53333;51.976;20.144;2023-05-09T00:50:32;101471.38;;;7.05;57.23
36664;BME280;53333;51.976;20.144;2023-05-09T00:53:05;101465.19;;;7.04;57.29
36664;BME280;53333;51.976;20.144;2023-05-09T00:55:38;101471.41;;;7.02;57.06
36664;BME280;53333;51.976;20.144;2023-05-09T00:58:12;101474.09;;;7.00;57.35
36664;BME280;53333;51.976;20.144;2023-05-09T01:00:45;101467.03;;;6.99;57.16
36664;BME280;53333;51.976;20.144;2023-05-09T01:03:20;101473.28;;;6.95;57.23
36664;BME280;53333;51.976;20.144;2023-05-09T01:05:55;101476.91;;;6.91;57.50
36664;BME280;53333;51.976;20.144;2023-05-09T01:08:40;101468.00;;;6.92;57.47
36664;BME280;53333;51.976;20.144;2023-05-09T01:11:20;101465.38;;;6.90;57.52
36664;BME280;53333;51.976;20.144;2023-05-09T01:14:14;101455.69;;;6.86;57.73
36664;BME280;53333;51.976;20.144;2023-05-09T01:16:59;101455.72;;;6.85;57.81
36664;BME280;53333;51.976;20.144;2023-05-09T01:19:50;101465.53;;;6.80;57.99
36664;BME280;53333;51.976;20.144;2023-05-09T01:22:30;101463.81;;;6.74;58.13
36664;BME280;53333;51.976;20.144;2023-05-09T01:25:19;101464.72;;;6.70;58.39
36664;BME280;53333;51.976;20.144;2023-05-09T01:28:09;101455.94;;;6.66;58.55
36664;BME280;53333;51.976;20.144;2023-05-09T01:30:45;101450.72;;;6.59;58.39
36664;BME280;53333;51.976;20.144;2023-05-09T01:33:19;101459.66;;;6.53;58.65
36664;BME280;53333;51.976;20.144;2023-05-09T01:35:58;101463.22;;;6.47;58.78
36664;BME280;53333;51.976;20.144;2023-05-09T01:38:33;101456.22;;;6.42;58.81
36664;BME280;53333;51.976;20.144;2023-05-09T01:41:08;101460.69;;;6.35;59.04
36664;BME280;53333;51.976;20.144;2023-05-09T01:43:44;101448.41;;;6.28;58.98
36664;BME280;53333;51.976;20.144;2023-05-09T01:46:20;101457.28;;;6.22;59.32
36664;BME280;53333;51.976;20.144;2023-05-09T01:48:55;101450.28;;;6.16;59.58
36664;BME280;53333;51.976;20.144;2023-05-09T01:51:29;101452.13;;;6.10;59.65
36664;BME280;53333;51.976;20.144;2023-05-09T01:54:04;101455.72;;;6.04;59.77
36664;BME280;53333;51.976;20.144;2023-05-09T01:56:39;101455.75;;;6.01;59.72
36664;BME280;53333;51.976;20.144;2023-05-09T01:59:13;101455.78;;;5.98;59.94
36664;BME280;53333;51.976;20.144;2023-05-09T02:01:48;101451.25;;;6.06;58.88
36664;BME280;53333;51.976;20.144;2023-05-09T02:04:23;101454.88;;;5.96;59.60
36664;BME280;53333;51.976;20.144;2023-05-09T02:06:57;101454.91;;;5.91;59.64
36664;BME280;53333;51.976;20.144;2023-05-09T02:09:31;101451.44;;;5.86;59.85
36664;BME280;53333;51.976;20.144;2023-05-09T02:12:04;101454.97;;;5.83;60.17
36664;BME280;53333;51.976;20.144;2023-05-09T02:14:37;101451.47;;;5.80;60.27
36664;BME280;53333;51.976;20.144;2023-05-09T02:17:11;101449.72;;;5.77;60.52
36664;BME280;53333;51.976;20.144;2023-05-09T02:19:47;101456.84;;;5.74;60.30
36664;BME280;53333;51.976;20.144;2023-05-09T02:22:20;101453.34;;;5.70;60.43
36664;BME280;53333;51.976;20.144;2023-05-09T02:24:53;101455.13;;;5.68;60.63
36664;BME280;53333;51.976;20.144;2023-05-09T02:27:26;101451.59;;;5.64;60.66
36664;BME280;53333;51.976;20.144;2023-05-09T02:30:02;101448.97;;;5.63;60.71
36664;BME280;53333;51.976;20.144;2023-05-09T02:32:40;101448.09;;;5.61;60.86
36664;BME280;53333;51.976;20.144;2023-05-09T02:35:17;101442.84;;;5.56;60.93
36664;BME280;53333;51.976;20.144;2023-05-09T02:37:51;101441.09;;;5.55;61.11
36664;BME280;53333;51.976;20.144;2023-05-09T02:40:24;101441.91;;;5.65;60.17
36664;BME280;53333;51.976;20.144;2023-05-09T02:42:58;101435.81;;;5.52;60.48
36664;BME280;53333;51.976;20.144;2023-05-09T02:45:31;101447.28;;;5.51;60.59
36664;BME280;53333;51.976;20.144;2023-05-09T02:48:07;101449.09;;;5.49;61.03
36664;BME280;53333;51.976;20.144;2023-05-09T02:50:40;101442.88;;;5.47;61.04
36664;BME280;53333;51.976;20.144;2023-05-09T02:53:14;101449.09;;;5.46;61.07
36664;BME280;53333;51.976;20.144;2023-05-09T02:55:47;101444.69;;;5.43;61.21
36664;BME280;53333;51.976;20.144;2023-05-09T02:58:21;101445.56;;;5.42;61.14
36664;BME280;53333;51.976;20.144;2023-05-09T03:00:54;101447.34;;;5.42;61.06
36664;BME280;53333;51.976;20.144;2023-05-09T03:03:28;101443.84;;;5.40;61.24
36664;BME280;53333;51.976;20.144;2023-05-09T03:06:07;101443.88;;;5.37;61.28
36664;BME280;53333;51.976;20.144;2023-05-09T03:08:40;101444.75;;;5.34;61.36
36664;BME280;53333;51.976;20.144;2023-05-09T03:11:13;101448.31;;;5.32;61.36
36664;BME280;53333;51.976;20.144;2023-05-09T03:13:46;101445.69;;;5.30;61.42
36664;BME280;53333;51.976;20.144;2023-05-09T03:16:19;101452.75;;;5.28;61.44
36664;BME280;53333;51.976;20.144;2023-05-09T03:18:55;101455.44;;;5.26;61.48
36664;BME280;53333;51.976;20.144;2023-05-09T03:21:28;101452.78;;;5.26;61.52
36664;BME280;53333;51.976;20.144;2023-05-09T03:24:02;101462.41;;;5.38;60.77
36664;BME280;53333;51.976;20.144;2023-05-09T03:26:35;101458.94;;;5.30;60.83
36664;BME280;53333;51.976;20.144;2023-05-09T03:29:08;101456.28;;;5.30;61.14
36664;BME280;53333;51.976;20.144;2023-05-09T03:31:42;101459.78;;;5.32;61.18
36664;BME280;53333;51.976;20.144;2023-05-09T03:34:17;101459.78;;;5.35;61.48
36664;BME280;53333;51.976;20.144;2023-05-09T03:36:49;101462.41;;;5.38;61.44
36664;BME280;53333;51.976;20.144;2023-05-09T03:39:22;101451.78;;;5.41;61.02
36664;BME280;53333;51.976;20.144;2023-05-09T03:41:59;101445.56;;;5.44;61.14
36664;BME280;53333;51.976;20.144;2023-05-09T03:44:32;101448.16;;;5.52;61.15
36664;BME280;53333;51.976;20.144;2023-05-09T03:47:05;101454.28;;;5.60;60.92
36664;BME280;53333;51.976;20.144;2023-05-09T03:49:43;101453.34;;;5.67;60.68
36664;BME280;53333;51.976;20.144;2023-05-09T03:52:19;101452.41;;;5.74;60.36
36664;BME280;53333;51.976;20.144;2023-05-09T03:54:52;101455.91;;;5.81;60.32
36664;BME280;53333;51.976;20.144;2023-05-09T03:57:25;101465.56;;;5.88;60.05
36664;BME280;53333;51.976;20.144;2023-05-09T04:00:00;101456.66;;;5.95;59.75
36664;BME280;53333;51.976;20.144;2023-05-09T04:02:44;101456.63;;;6.03;59.55
36664;BME280;53333;51.976;20.144;2023-05-09T04:05:27;101463.59;;;6.13;59.41
36664;BME280;53333;51.976;20.144;2023-05-09T04:08:02;101462.63;;;6.21;59.57
36664;BME280;53333;51.976;20.144;2023-05-09T04:10:36;101465.19;;;6.28;59.73
36664;BME280;53333;51.976;20.144;2023-05-09T04:13:09;101466.94;;;6.34;59.85
36664;BME280;53333;51.976;20.144;2023-05-09T04:15:42;101459.78;;;6.41;59.60
36664;BME280;53333;51.976;20.144;2023-05-09T04:18:15;101465.03;;;6.45;59.53
36664;BME280;53333;51.976;20.144;2023-05-09T04:20:50;101461.41;;;6.52;59.66
36664;BME280;53333;51.976;20.144;2023-05-09T04:23:24;101457.78;;;6.61;59.79
36664;BME280;53333;51.976;20.144;2023-05-09T04:26:00;101458.56;;;6.69;59.53
36664;BME280;53333;51.976;20.144;2023-05-09T04:28:33;101456.66;;;6.79;59.61
36664;BME280;53333;51.976;20.144;2023-05-09T04:31:06;101458.31;;;6.91;58.96
36664;BME280;53333;51.976;20.144;2023-05-09T04:33:40;101458.06;;;7.06;58.32
36664;BME280;53333;51.976;20.144;2023-05-09T04:36:14;101454.38;;;7.20;57.75
36664;BME280;53333;51.976;20.144;2023-05-09T04:38:47;101445.28;;;7.35;57.07
36664;BME280;53333;51.976;20.144;2023-05-09T04:41:26;101439.75;;;7.49;56.88
36664;BME280;53333;51.976;20.144;2023-05-09T04:43:59;101454.56;;;7.63;56.28
36664;BME280;53333;51.976;20.144;2023-05-09T04:46:33;101455.88;;;7.92;56.14
36664;BME280;53333;51.976;20.144;2023-05-09T04:49:06;101454.00;;;7.97;55.81
36664;BME280;53333;51.976;20.144;2023-05-09T04:51:41;101458.19;;;8.12;55.89
36664;BME280;53333;51.976;20.144;2023-05-09T04:54:13;101455.25;;;8.26;55.38
36664;BME280;53333;51.976;20.144;2023-05-09T04:56:47;101454.09;;;8.43;54.88
36664;BME280;53333;51.976;20.144;2023-05-09T04:59:22;101455.56;;;8.59;54.61
36664;BME280;53333;51.976;20.144;2023-05-09T05:01:55;101455.19;;;8.78;54.12
36664;BME280;53333;51.976;20.144;2023-05-09T05:04:29;101461.88;;;8.97;53.97
36664;BME280;53333;51.976;20.144;2023-05-09T05:07:05;101455.22;;;9.17;53.83
36664;BME280;53333;51.976;20.144;2023-05-09T05:09:39;101446.81;;;9.35;53.61
36664;BME280;53333;51.976;20.144;2023-05-09T05:12:13;101453.56;;;9.50;53.44
36664;BME280;53333;51.976;20.144;2023-05-09T05:14:47;101451.44;;;9.64;52.70
36664;BME280;53333;51.976;20.144;2023-05-09T05:17:23;101452.81;;;9.81;52.92
36664;BME280;53333;51.976;20.144;2023-05-09T05:19:56;101448.91;;;9.96;52.07
36664;BME280;53333;51.976;20.144;2023-05-09T05:22:32;101460.16;;;10.07;51.75
36664;BME280;53333;51.976;20.144;2023-05-09T05:25:07;101451.03;;;10.16;51.50
36664;BME280;53333;51.976;20.144;2023-05-09T05:27:41;101451.63;;;10.27;51.13
36664;BME280;53333;51.976;20.144;2023-05-09T05:30:16;101455.78;;;10.39;51.31
36664;BME280;53333;51.976;20.144;2023-05-09T05:32:49;101450.16;;;10.50;51.11
36664;BME280;53333;51.976;20.144;2023-05-09T05:35:24;101447.13;;;10.62;51.19
36664;BME280;53333;51.976;20.144;2023-05-09T05:38:00;101449.31;;;10.79;51.21
36664;BME280;53333;51.976;20.144;2023-05-09T05:40:33;101446.97;;;10.98;50.68
36664;BME280;53333;51.976;20.144;2023-05-09T05:43:08;101444.63;;;11.17;50.69
36664;BME280;53333;51.976;20.144;2023-05-09T05:45:42;101443.06;;;11.38;51.04
36664;BME280;53333;51.976;20.144;2023-05-09T05:48:20;101445.97;;;11.59;49.98
36664;BME280;53333;51.976;20.144;2023-05-09T05:50:52;101441.59;;;11.83;49.76
36664;BME280;53333;51.976;20.144;2023-05-09T05:53:30;101442.81;;;12.01;48.78
36664;BME280;53333;51.976;20.144;2023-05-09T05:56:04;101439.50;;;12.20;48.33
36664;BME280;53333;51.976;20.144;2023-05-09T05:58:37;101450.47;;;12.37;48.21
36664;BME280;53333;51.976;20.144;2023-05-09T06:01:11;101447.19;;;12.54;47.71
36664;BME280;53333;51.976;20.144;2023-05-09T06:03:44;101443.81;;;12.72;47.86
36664;BME280;53333;51.976;20.144;2023-05-09T06:06:17;101443.19;;;12.89;47.29
36664;BME280;53333;51.976;20.144;2023-05-09T06:08:52;101441.66;;;13.06;47.13
36664;BME280;53333;51.976;20.144;2023-05-09T06:11:26;101436.63;;;13.20;46.45
36664;BME280;53333;51.976;20.144;2023-05-09T06:13:59;101432.41;;;13.37;46.42
36664;BME280;53333;51.976;20.144;2023-05-09T06:16:32;101431.81;;;13.52;45.79
36664;BME280;53333;51.976;20.144;2023-05-09T06:19:05;101430.34;;;13.66;45.40
36664;BME280;53333;51.976;20.144;2023-05-09T06:21:39;101430.44;;;13.85;44.79
36664;BME280;53333;51.976;20.144;2023-05-09T06:24:13;101436.75;;;14.06;45.05
36664;BME280;53333;51.976;20.144;2023-05-09T06:27:02;101429.69;;;14.24;43.61
36664;BME280;53333;51.976;20.144;2023-05-09T06:29:36;101436.13;;;14.40;43.72
36664;BME280;53333;51.976;20.144;2023-05-09T06:32:08;101439.78;;;14.58;43.04
36664;BME280;53333;51.976;20.144;2023-05-09T06:34:41;101432.00;;;14.73;42.25
36664;BME280;53333;51.976;20.144;2023-05-09T06:37:14;101422.56;;;14.83;41.88
36664;BME280;53333;51.976;20.144;2023-05-09T06:39:48;101421.09;;;14.95;41.47
36664;BME280;53333;51.976;20.144;2023-05-09T06:42:21;101419.59;;;15.08;41.32
36664;BME280;53333;51.976;20.144;2023-05-09T06:44:54;101430.66;;;15.21;40.90
36664;BME280;53333;51.976;20.144;2023-05-09T06:47:27;101425.53;;;15.34;40.45
36664;BME280;53333;51.976;20.144;2023-05-09T06:50:00;101424.75;;;15.49;39.83
36664;BME280;53333;51.976;20.144;2023-05-09T06:52:33;101427.75;;;15.62;39.81
36664;BME280;53333;51.976;20.144;2023-05-09T06:55:09;101418.25;;;15.72;39.62
36664;BME280;53333;51.976;20.144;2023-05-09T06:57:42;101423.13;;;15.83;39.22
36664;BME280;53333;51.976;20.144;2023-05-09T07:00:15;101422.41;;;15.97;39.14
36664;BME280;53333;51.976;20.144;2023-05-09T07:02:48;101425.25;;;16.11;37.97
36664;BME280;53333;51.976;20.144;2023-05-09T07:05:21;101421.91;;;16.24;37.54
36664;BME280;53333;51.976;20.144;2023-05-09T07:07:54;101425.66;;;16.39;37.48
36664;BME280;53333;51.976;20.144;2023-05-09T07:10:29;101424.03;;;16.52;36.35
36664;BME280;53333;51.976;20.144;2023-05-09T07:13:02;101413.69;;;16.60;35.42
36664;BME280;53333;51.976;20.144;2023-05-09T07:15:35;101407.72;;;16.71;35.17
36664;BME280;53333;51.976;20.144;2023-05-09T07:18:13;101408.84;;;16.83;34.03
36664;BME280;53333;51.976;20.144;2023-05-09T07:20:46;101399.50;;;16.90;33.34
36664;BME280;53333;51.976;20.144;2023-05-09T07:23:19;101396.38;;;16.98;32.53
36664;BME280;53333;51.976;20.144;2023-05-09T07:25:56;101396.13;;;17.02;32.16
36664;BME280;53333;51.976;20.144;2023-05-09T07:28:31;101402.13;;;17.08;32.65
36664;BME280;53333;51.976;20.144;2023-05-09T07:31:04;101393.69;;;17.14;31.96
36664;BME280;53333;51.976;20.144;2023-05-09T07:33:37;101390.53;;;17.21;31.75
36664;BME280;53333;51.976;20.144;2023-05-09T07:36:10;101397.06;;;17.33;31.24
36664;BME280;53333;51.976;20.144;2023-05-09T07:38:45;101389.31;;;17.43;30.65
36664;BME280;53333;51.976;20.144;2023-05-09T07:41:22;101379.88;;;17.50;30.14
36664;BME280;53333;51.976;20.144;2023-05-09T07:43:55;101367.66;;;17.59;30.14
36664;BME280;53333;51.976;20.144;2023-05-09T07:46:28;101374.88;;;17.74;31.22
36664;BME280;53333;51.976;20.144;2023-05-09T07:49:01;101386.34;;;17.94;30.77
36664;BME280;53333;51.976;20.144;2023-05-09T07:51:34;101374.50;;;18.11;29.83
36664;BME280;53333;51.976;20.144;2023-05-09T07:54:07;101374.53;;;18.25;29.32
36664;BME280;53333;51.976;20.144;2023-05-09T07:56:42;101389.97;;;18.38;28.68
36664;BME280;53333;51.976;20.144;2023-05-09T07:59:15;101370.28;;;18.50;28.88
36664;BME280;53333;51.976;20.144;2023-05-09T08:01:48;101369.00;;;18.70;28.82
36664;BME280;53333;51.976;20.144;2023-05-09T08:04:21;101369.59;;;18.90;27.88
36664;BME280;53333;51.976;20.144;2023-05-09T08:06:54;101365.31;;;19.00;27.93
36664;BME280;53333;51.976;20.144;2023-05-09T08:09:28;101354.38;;;19.01;27.15
36664;BME280;53333;51.976;20.144;2023-05-09T08:12:03;101356.03;;;19.04;27.42
36664;BME280;53333;51.976;20.144;2023-05-09T08:14:36;101345.44;;;19.14;27.01
36664;BME280;53333;51.976;20.144;2023-05-09T08:17:09;101351.56;;;19.30;26.44
36664;BME280;53333;51.976;20.144;2023-05-09T08:19:42;101347.03;;;19.58;26.49
36664;BME280;53333;51.976;20.144;2023-05-09T08:22:18;101342.13;;;19.90;26.21
36664;BME280;53333;51.976;20.144;2023-05-09T08:24:51;101337.69;;;20.28;25.74
36664;BME280;53333;51.976;20.144;2023-05-09T08:27:25;101327.44;;;20.70;25.07
36664;BME280;53333;51.976;20.144;2023-05-09T08:29:58;101324.78;;;20.94;24.53
36664;BME280;53333;51.976;20.144;2023-05-09T08:32:30;101329.78;;;21.49;23.86
36664;BME280;53333;51.976;20.144;2023-05-09T08:35:04;101327.00;;;22.20;23.52
36664;BME280;53333;51.976;20.144;2023-05-09T08:37:39;101326.50;;;23.37;21.87
36664;BME280;53333;51.976;20.144;2023-05-09T08:40:12;101317.88;;;24.78;20.62
36664;BME280;53333;51.976;20.144;2023-05-09T08:42:47;101320.13;;;26.02;19.22
36664;BME280;53333;51.976;20.144;2023-05-09T08:45:24;101313.69;;;27.14;18.14
36664;BME280;53333;51.976;20.144;2023-05-09T08:47:58;101315.69;;;28.28;17.06
36664;BME280;53333;51.976;20.144;2023-05-09T08:50:32;101310.75;;;29.33;15.66
36664;BME280;53333;51.976;20.144;2023-05-09T08:53:06;101314.72;;;30.05;14.94
36664;BME280;53333;51.976;20.144;2023-05-09T08:55:40;101301.50;;;30.56;14.85
36664;BME280;53333;51.976;20.144;2023-05-09T08:58:14;101300.88;;;31.32;14.41
36664;BME280;53333;51.976;20.144;2023-05-09T09:00:50;101301.63;;;32.25;13.70
36664;BME280;53333;51.976;20.144;2023-05-09T09:03:23;101315.78;;;32.97;12.41
36664;BME280;53333;51.976;20.144;2023-05-09T09:05:57;101301.31;;;33.38;12.27
36664;BME280;53333;51.976;20.144;2023-05-09T09:08:30;101309.59;;;33.81;11.71
36664;BME280;53333;51.976;20.144;2023-05-09T09:11:05;101314.34;;;34.15;11.08
36664;BME280;53333;51.976;20.144;2023-05-09T09:13:43;101309.56;;;34.31;11.13
36664;BME280;53333;51.976;20.144;2023-05-09T09:16:18;101318.34;;;34.41;11.30
36664;BME280;53333;51.976;20.144;2023-05-09T09:18:53;101304.19;;;34.64;10.79
36664;BME280;53333;51.976;20.144;2023-05-09T09:21:30;101303.94;;;35.14;11.00
36664;BME280;53333;51.976;20.144;2023-05-09T09:24:06;101303.56;;;35.71;9.95
36664;BME280;53333;51.976;20.144;2023-05-09T09:26:45;101298.25;;;35.89;9.91
36664;BME280;53333;51.976;20.144;2023-05-09T09:29:19;101305.09;;;35.67;10.16
36664;BME280;53333;51.976;20.144;2023-05-09T09:31:53;101294.19;;;35.45;10.51
36664;BME280;53333;51.976;20.144;2023-05-09T09:34:26;101290.56;;;35.71;9.94
36664;BME280;53333;51.976;20.144;2023-05-09T09:36:59;101289.47;;;36.06;10.23
36664;BME280;53333;51.976;20.144;2023-05-09T09:39:32;101308.06;;;36.12;9.88
36664;BME280;53333;51.976;20.144;2023-05-09T09:42:11;101292.22;;;36.32;9.71
36664;BME280;53333;51.976;20.144;2023-05-09T09:44:50;101285.41;;;36.08;9.67
36664;BME280;53333;51.976;20.144;2023-05-09T09:47:30;101279.53;;;36.50;9.49
36664;BME280;53333;51.976;20.144;2023-05-09T09:50:09;101295.69;;;36.80;8.71
36664;BME280;53333;51.976;20.144;2023-05-09T09:52:46;101285.41;;;36.80;8.86
36664;BME280;53333;51.976;20.144;2023-05-09T09:55:22;101276.03;;;37.06;9.29
36664;BME280;53333;51.976;20.144;2023-05-09T09:57:55;101269.41;;;37.39;9.03
36664;BME280;53333;51.976;20.144;2023-05-09T10:00:29;101264.63;;;37.78;8.42
36664;BME280;53333;51.976;20.144;2023-05-09T10:03:03;101274.44;;;37.81;8.24
36664;BME280;53333;51.976;20.144;2023-05-09T10:05:36;101264.59;;;37.53;8.52
36664;BME280;53333;51.976;20.144;2023-05-09T10:08:11;101275.31;;;37.24;8.37
36664;BME280;53333;51.976;20.144;2023-05-09T10:10:44;101280.44;;;36.89;8.51
36664;BME280;53333;51.976;20.144;2023-05-09T10:13:17;101266.78;;;36.81;8.72
36664;BME280;53333;51.976;20.144;2023-05-09T10:15:52;101255.25;;;36.77;8.35
36664;BME280;53333;51.976;20.144;2023-05-09T10:18:27;101260.22;;;36.68;8.63
36664;BME280;53333;51.976;20.144;2023-05-09T10:21:02;101255.91;;;36.72;8.73
36664;BME280;53333;51.976;20.144;2023-05-09T10:23:36;101245.66;;;37.05;8.12
36664;BME280;53333;51.976;20.144;2023-05-09T10:26:16;101230.00;;;37.11;8.36
36664;BME280;53333;51.976;20.144;2023-05-09T10:28:50;101247.81;;;36.64;8.08
36664;BME280;53333;51.976;20.144;2023-05-09T10:31:28;101245.81;;;36.19;8.78
36664;BME280;53333;51.976;20.144;2023-05-09T10:34:04;101252.31;;;36.00;9.10
36664;BME280;53333;51.976;20.144;2023-05-09T10:36:41;101228.16;;;35.94;8.48
36664;BME280;53333;51.976;20.144;2023-05-09T10:39:15;101231.19;;;35.59;8.88
36664;BME280;53333;51.976;20.144;2023-05-09T10:41:48;101228.97;;;34.81;9.22
36664;BME280;53333;51.976;20.144;2023-05-09T10:44:23;101212.66;;;33.81;9.62
36664;BME280;53333;51.976;20.144;2023-05-09T10:46:58;101214.53;;;33.02;10.20
36664;BME280;53333;51.976;20.144;2023-05-09T10:49:32;101219.63;;;32.11;10.65
36664;BME280;53333;51.976;20.144;2023-05-09T10:52:07;101209.66;;;31.33;11.19
36664;BME280;53333;51.976;20.144;2023-05-09T10:54:40;101203.09;;;30.65;11.19
36664;BME280;53333;51.976;20.144;2023-05-09T10:57:17;101199.41;;;30.02;11.74
36664;BME280;53333;51.976;20.144;2023-05-09T10:59:51;101193.50;;;29.32;12.28
36664;BME280;53333;51.976;20.144;2023-05-09T11:02:25;101189.84;;;28.74;12.71
36664;BME280;53333;51.976;20.144;2023-05-09T11:05:15;101193.19;;;28.01;13.14
36664;BME280;53333;51.976;20.144;2023-05-09T11:08:17;101187.34;;;27.43;13.60
36664;BME280;53333;51.976;20.144;2023-05-09T11:10:51;101176.69;;;27.04;14.39
36664;BME280;53333;51.976;20.144;2023-05-09T11:13:24;101174.22;;;26.75;14.22
36664;BME280;53333;51.976;20.144;2023-05-09T11:16:08;101178.81;;;26.28;14.99
36664;BME280;53333;51.976;20.144;2023-05-09T11:18:52;101169.84;;;25.71;15.13
36664;BME280;53333;51.976;20.144;2023-05-09T11:21:25;101168.78;;;25.34;15.87
36664;BME280;53333;51.976;20.144;2023-05-09T11:24:15;101151.13;;;24.99;15.39
36664;BME280;53333;51.976;20.144;2023-05-09T11:26:48;101156.88;;;24.57;15.64
36664;BME280;53333;51.976;20.144;2023-05-09T11:29:25;101157.03;;;24.15;15.86
36664;BME280;53333;51.976;20.144;2023-05-09T11:32:05;101160.59;;;23.75;16.16
36664;BME280;53333;51.976;20.144;2023-05-09T11:34:42;101153.66;;;23.40;16.83
36664;BME280;53333;51.976;20.144;2023-05-09T11:37:16;101155.19;;;23.12;17.27
36664;BME280;53333;51.976;20.144;2023-05-09T11:39:57;101139.53;;;22.93;16.99
36664;BME280;53333;51.976;20.144;2023-05-09T11:42:30;101135.28;;;22.79;17.32
36664;BME280;53333;51.976;20.144;2023-05-09T11:45:04;101130.88;;;22.66;17.17
36664;BME280;53333;51.976;20.144;2023-05-09T11:47:38;101139.22;;;22.54;17.31
36664;BME280;53333;51.976;20.144;2023-05-09T11:50:14;101132.09;;;22.30;17.23
36664;BME280;53333;51.976;20.144;2023-05-09T11:52:48;101126.19;;;22.13;17.83
36664;BME280;53333;51.976;20.144;2023-05-09T11:55:21;101131.03;;;21.99;17.95
36664;BME280;53333;51.976;20.144;2023-05-09T11:57:57;101120.38;;;21.84;17.89
36664;BME280;53333;51.976;20.144;2023-05-09T12:00:30;101108.78;;;21.71;18.11
36664;BME280;53333;51.976;20.144;2023-05-09T12:03:03;101100.75;;;21.69;17.96
36664;BME280;53333;51.976;20.144;2023-05-09T12:05:38;101124.50;;;21.56;18.27
36664;BME280;53333;51.976;20.144;2023-05-09T12:08:13;101113.47;;;21.46;18.47
36664;BME280;53333;51.976;20.144;2023-05-09T12:10:46;101116.06;;;21.36;19.22
36664;BME280;53333;51.976;20.144;2023-05-09T12:13:18;101104.41;;;21.34;18.78
36664;BME280;53333;51.976;20.144;2023-05-09T12:15:59;101097.63;;;21.29;18.47
36664;BME280;53333;51.976;20.144;2023-05-09T12:18:33;101095.75;;;21.18;18.69
36664;BME280;53333;51.976;20.144;2023-05-09T12:21:07;101101.91;;;21.09;19.07
36664;BME280;53333;51.976;20.144;2023-05-09T12:23:41;101105.94;;;20.92;19.00
36664;BME280;53333;51.976;20.144;2023-05-09T12:26:14;101087.91;;;20.79;19.20
36664;BME280;53333;51.976;20.144;2023-05-09T12:28:47;101095.66;;;20.73;19.36
36664;BME280;53333;51.976;20.144;2023-05-09T12:31:20;101087.75;;;20.70;19.24
36664;BME280;53333;51.976;20.144;2023-05-09T12:33:54;101089.13;;;20.51;19.26
36664;BME280;53333;51.976;20.144;2023-05-09T12:36:33;101080.69;;;20.43;20.07
36664;BME280;53333;51.976;20.144;2023-05-09T12:39:08;101073.13;;;20.35;20.26
36664;BME280;53333;51.976;20.144;2023-05-09T12:41:44;101063.75;;;20.28;20.15
36664;BME280;53333;51.976;20.144;2023-05-09T12:44:32;101061.63;;;20.20;20.45
36664;BME280;53333;51.976;20.144;2023-05-09T12:47:05;101063.78;;;20.15;20.87
36664;BME280;53333;51.976;20.144;2023-05-09T12:49:38;101048.50;;;20.14;21.15
36664;BME280;53333;51.976;20.144;2023-05-09T12:52:17;101048.28;;;20.17;22.31
36664;BME280;53333;51.976;20.144;2023-05-09T12:54:52;101046.53;;;20.16;21.17
36664;BME280;53333;51.976;20.144;2023-05-09T12:57:25;101044.16;;;20.11;21.69
36664;BME280;53333;51.976;20.144;2023-05-09T13:00:03;101041.69;;;20.08;21.21
36664;BME280;53333;51.976;20.144;2023-05-09T13:02:39;101040.19;;;20.04;21.10
36664;BME280;53333;51.976;20.144;2023-05-09T13:05:16;101027.22;;;19.96;21.11
36664;BME280;53333;51.976;20.144;2023-05-09T13:07:55;101026.03;;;19.88;20.85
36664;BME280;53333;51.976;20.144;2023-05-09T13:10:28;101020.31;;;19.80;21.28
36664;BME280;53333;51.976;20.144;2023-05-09T13:13:03;101022.41;;;19.76;21.82
36664;BME280;53333;51.976;20.144;2023-05-09T13:15:36;101022.81;;;19.70;20.67
36664;BME280;53333;51.976;20.144;2023-05-09T13:18:10;101019.94;;;19.60;20.67
36664;BME280;53333;51.976;20.144;2023-05-09T13:20:43;101016.03;;;19.51;20.40
36664;BME280;53333;51.976;20.144;2023-05-09T13:23:17;101017.59;;;19.42;20.54
36664;BME280;53333;51.976;20.144;2023-05-09T13:25:50;101019.13;;;19.34;20.93